sensor_id;sensor_type;location;lat;lon;timestamp;P1;durP1;ratioP1;P2;durP2;ratioP2
16624;SDS011;8426;48.496;9.098;2023-02-04T00:03:37;1.55;;;0.50;;
16624;SDS011;8426;48.496;9.098;2023-02-04T00:08:43;1.90;;;0.60;;
16624;SDS011;8426;48.496;9.098;2023-02-04T00:13:57;1.08;;;0.70;;
16624;SDS011;8426;48.496;9.098;2023-02-04T00:24:56;1.75;;;0.52;;
16624;SDS011;8426;48.496;9.098;2023-02-04T00:30:00;2.15;;;0.68;;
16624;SDS011;8426;48.496;9.098;2023-02-04T00:35:03;0.95;;;0.73;;
16624;SDS011;8426;48.496;9.098;2023-02-04T00:45:24;0.95;;;0.75;;
16624;SDS011;8426;48.496;9.098;2023-02-04T00:55:59;1.15;;;0.82;;
16624;SDS011;8426;48.496;9.098;2023-02-04T01:01:04;1.30;;;1.00;;
16624;SDS011;8426;48.496;9.098;2023-02-04T01:06:20;1.00;;;0.80;;
16624;SDS011;8426;48.496;9.098;2023-02-04T01:11:28;1.30;;;0.95;;
16624;SDS011;8426;48.496;9.098;2023-02-04T01:16:32;1.38;;;0.90;;
16624;SDS011;8426;48.496;9.098;2023-02-04T01:21:35;2.08;;;1.00;;
16624;SDS011;8426;48.496;9.098;2023-02-04T01:26:44;1.95;;;0.90;;
16624;SDS011;8426;48.496;9.098;2023-02-04T01:31:49;1.80;;;1.13;;
16624;SDS011;8426;48.496;9.098;2023-02-04T01:36:53;1.85;;;1.00;;
16624;SDS011;8426;48.496;9.098;2023-02-04T01:41:57;1.90;;;1.20;;
16624;SDS011;8426;48.496;9.098;2023-02-04T01:47:04;3.08;;;1.05;;
16624;SDS011;8426;48.496;9.098;2023-02-04T01:52:08;2.60;;;1.20;;
16624;SDS011;8426;48.496;9.098;2023-02-04T01:57:14;2.58;;;1.42;;
16624;SDS011;8426;48.496;9.098;2023-02-04T02:02:37;3.45;;;1.92;;
16624;SDS011;8426;48.496;9.098;2023-02-04T02:07:57;2.80;;;1.90;;
16624;SDS011;8426;48.496;9.098;2023-02-04T02:18:21;3.47;;;2.13;;
16624;SDS011;8426;48.496;9.098;2023-02-04T02:23:41;5.10;;;2.25;;
16624;SDS011;8426;48.496;9.098;2023-02-04T02:28:49;3.08;;;2.00;;
16624;SDS011;8426;48.496;9.098;2023-02-04T02:33:53;3.03;;;2.28;;
16624;SDS011;8426;48.496;9.098;2023-02-04T02:39:00;4.30;;;2.33;;
16624;SDS011;8426;48.496;9.098;2023-02-04T02:44:11;3.45;;;2.10;;
16624;SDS011;8426;48.496;9.098;2023-02-04T02:49:17;4.35;;;2.45;;
16624;SDS011;8426;48.496;9.098;2023-02-04T02:54:29;3.95;;;2.42;;
16624;SDS011;8426;48.496;9.098;2023-02-04T02:59:34;5.03;;;2.50;;
16624;SDS011;8426;48.496;9.098;2023-02-04T03:04:51;4.22;;;2.13;;
16624;SDS011;8426;48.496;9.098;2023-02-04T03:10:04;5.40;;;3.00;;
16624;SDS011;8426;48.496;9.098;2023-02-04T03:15:08;4.93;;;2.30;;
16624;SDS011;8426;48.496;9.098;2023-02-04T03:20:15;9.23;;;2.38;;
16624;SDS011;8426;48.496;9.098;2023-02-04T03:25:20;1.92;;;1.65;;
16624;SDS011;8426;48.496;9.098;2023-02-04T03:30:25;3.05;;;2.00;;
16624;SDS011;8426;48.496;9.098;2023-02-04T03:35:30;2.65;;;1.73;;
16624;SDS011;8426;48.496;9.098;2023-02-04T03:40:42;1.83;;;1.40;;
16624;SDS011;8426;48.496;9.098;2023-02-04T03:45:47;2.10;;;1.10;;
16624;SDS011;8426;48.496;9.098;2023-02-04T03:51:04;2.38;;;1.52;;
16624;SDS011;8426;48.496;9.098;2023-02-04T03:56:16;1.88;;;1.42;;
16624;SDS011;8426;48.496;9.098;2023-02-04T04:01:21;2.78;;;1.33;;
16624;SDS011;8426;48.496;9.098;2023-02-04T04:06:38;1.77;;;1.20;;
16624;SDS011;8426;48.496;9.098;2023-02-04T04:11:44;5.15;;;1.23;;
16624;SDS011;8426;48.496;9.098;2023-02-04T04:16:47;1.42;;;1.00;;
16624;SDS011;8426;48.496;9.098;2023-02-04T04:21:50;3.55;;;1.55;;
16624;SDS011;8426;48.496;9.098;2023-02-04T04:32:35;3.38;;;2.03;;
16624;SDS011;8426;48.496;9.098;2023-02-04T04:37:38;5.55;;;2.55;;
16624;SDS011;8426;48.496;9.098;2023-02-04T04:42:44;2.88;;;2.33;;
16624;SDS011;8426;48.496;9.098;2023-02-04T04:53:27;2.13;;;1.30;;
16624;SDS011;8426;48.496;9.098;2023-02-04T04:58:32;3.80;;;1.20;;
16624;SDS011;8426;48.496;9.098;2023-02-04T05:03:37;2.38;;;1.05;;
16624;SDS011;8426;48.496;9.098;2023-02-04T05:08:40;5.15;;;1.08;;
16624;SDS011;8426;48.496;9.098;2023-02-04T05:13:59;4.80;;;1.10;;
16624;SDS011;8426;48.496;9.098;2023-02-04T05:19:06;5.13;;;1.38;;
16624;SDS011;8426;48.496;9.098;2023-02-04T05:24:20;2.97;;;1.02;;
16624;SDS011;8426;48.496;9.098;2023-02-04T05:29:25;3.78;;;0.90;;
16624;SDS011;8426;48.496;9.098;2023-02-04T05:34:28;4.50;;;1.10;;
16624;SDS011;8426;48.496;9.098;2023-02-04T05:39:38;5.72;;;1.13;;
16624;SDS011;8426;48.496;9.098;2023-02-04T05:44:50;3.35;;;1.00;;
16624;SDS011;8426;48.496;9.098;2023-02-04T05:49:53;1.42;;;0.80;;
16624;SDS011;8426;48.496;9.098;2023-02-04T06:00:20;3.85;;;1.38;;
16624;SDS011;8426;48.496;9.098;2023-02-04T06:11:05;1.60;;;1.02;;
16624;SDS011;8426;48.496;9.098;2023-02-04T06:16:10;3.78;;;1.23;;
16624;SDS011;8426;48.496;9.098;2023-02-04T06:21:26;4.63;;;1.45;;
16624;SDS011;8426;48.496;9.098;2023-02-04T06:26:31;5.20;;;2.15;;
16624;SDS011;8426;48.496;9.098;2023-02-04T06:31:39;5.10;;;1.50;;
16624;SDS011;8426;48.496;9.098;2023-02-04T06:36:42;3.58;;;1.73;;
16624;SDS011;8426;48.496;9.098;2023-02-04T06:41:48;2.78;;;1.55;;
16624;SDS011;8426;48.496;9.098;2023-02-04T06:46:54;7.80;;;1.83;;
16624;SDS011;8426;48.496;9.098;2023-02-04T06:51:58;5.35;;;2.65;;
16624;SDS011;8426;48.496;9.098;2023-02-04T06:57:02;6.30;;;2.97;;
16624;SDS011;8426;48.496;9.098;2023-02-04T07:02:10;5.57;;;1.77;;
16624;SDS011;8426;48.496;9.098;2023-02-04T07:07:13;5.50;;;1.50;;
16624;SDS011;8426;48.496;9.098;2023-02-04T07:12:18;4.25;;;1.60;;
16624;SDS011;8426;48.496;9.098;2023-02-04T07:17:22;4.60;;;1.52;;
16624;SDS011;8426;48.496;9.098;2023-02-04T07:22:26;3.33;;;1.90;;
16624;SDS011;8426;48.496;9.098;2023-02-04T07:27:29;6.95;;;1.83;;
16624;SDS011;8426;48.496;9.098;2023-02-04T07:32:34;7.43;;;4.07;;
16624;SDS011;8426;48.496;9.098;2023-02-04T07:37:38;3.72;;;1.65;;
16624;SDS011;8426;48.496;9.098;2023-02-04T07:42:41;7.53;;;2.33;;
16624;SDS011;8426;48.496;9.098;2023-02-04T07:47:46;3.50;;;2.03;;
16624;SDS011;8426;48.496;9.098;2023-02-04T07:52:49;6.75;;;2.25;;
16624;SDS011;8426;48.496;9.098;2023-02-04T07:57:53;10.18;;;2.80;;
16624;SDS011;8426;48.496;9.098;2023-02-04T08:02:58;5.05;;;2.15;;
16624;SDS011;8426;48.496;9.098;2023-02-04T08:08:01;7.85;;;2.40;;
16624;SDS011;8426;48.496;9.098;2023-02-04T08:13:05;12.05;;;2.83;;
16624;SDS011;8426;48.496;9.098;2023-02-04T08:18:10;4.85;;;2.63;;
16624;SDS011;8426;48.496;9.098;2023-02-04T08:23:13;9.48;;;3.00;;
16624;SDS011;8426;48.496;9.098;2023-02-04T08:28:16;4.95;;;2.60;;
16624;SDS011;8426;48.496;9.098;2023-02-04T08:33:21;12.02;;;3.05;;
16624;SDS011;8426;48.496;9.098;2023-02-04T08:38:26;15.60;;;3.00;;
16624;SDS011;8426;48.496;9.098;2023-02-04T08:43:48;15.93;;;3.20;;
16624;SDS011;8426;48.496;9.098;2023-02-04T08:49:04;12.90;;;3.40;;
16624;SDS011;8426;48.496;9.098;2023-02-04T08:54:08;12.45;;;3.03;;
16624;SDS011;8426;48.496;9.098;2023-02-04T08:59:19;12.32;;;2.83;;
16624;SDS011;8426;48.496;9.098;2023-02-04T09:04:31;13.68;;;2.58;;
16624;SDS011;8426;48.496;9.098;2023-02-04T09:09:37;10.02;;;2.97;;
16624;SDS011;8426;48.496;9.098;2023-02-04T09:14:58;15.32;;;3.97;;
16624;SDS011;8426;48.496;9.098;2023-02-04T09:20:03;17.70;;;4.63;;
16624;SDS011;8426;48.496;9.098;2023-02-04T09:25:26;10.82;;;3.25;;
16624;SDS011;8426;48.496;9.098;2023-02-04T09:30:30;15.70;;;4.57;;
16624;SDS011;8426;48.496;9.098;2023-02-04T09:40:52;10.93;;;3.65;;
16624;SDS011;8426;48.496;9.098;2023-02-04T09:46:01;15.40;;;3.57;;
16624;SDS011;8426;48.496;9.098;2023-02-04T09:51:07;12.65;;;4.07;;
16624;SDS011;8426;48.496;9.098;2023-02-04T09:56:16;15.35;;;2.95;;
16624;SDS011;8426;48.496;9.098;2023-02-04T10:01:25;16.90;;;3.67;;
16624;SDS011;8426;48.496;9.098;2023-02-04T10:06:33;20.90;;;2.38;;
16624;SDS011;8426;48.496;9.098;2023-02-04T10:11:37;9.95;;;1.92;;
16624;SDS011;8426;48.496;9.098;2023-02-04T10:16:43;14.07;;;2.22;;
16624;SDS011;8426;48.496;9.098;2023-02-04T10:21:54;11.98;;;2.05;;
16624;SDS011;8426;48.496;9.098;2023-02-04T10:27:07;15.23;;;2.05;;
16624;SDS011;8426;48.496;9.098;2023-02-04T10:32:24;10.65;;;2.22;;
16624;SDS011;8426;48.496;9.098;2023-02-04T10:37:32;11.15;;;2.20;;
16624;SDS011;8426;48.496;9.098;2023-02-04T10:42:46;12.23;;;2.42;;
16624;SDS011;8426;48.496;9.098;2023-02-04T10:47:56;12.90;;;2.70;;
16624;SDS011;8426;48.496;9.098;2023-02-04T10:53:00;7.00;;;1.75;;
16624;SDS011;8426;48.496;9.098;2023-02-04T10:58:28;20.05;;;2.13;;
16624;SDS011;8426;48.496;9.098;2023-02-04T11:03:32;15.32;;;2.00;;
16624;SDS011;8426;48.496;9.098;2023-02-04T11:08:38;15.40;;;2.00;;
16624;SDS011;8426;48.496;9.098;2023-02-04T11:13:58;14.05;;;1.77;;
16624;SDS011;8426;48.496;9.098;2023-02-04T11:19:11;7.00;;;1.67;;
16624;SDS011;8426;48.496;9.098;2023-02-04T11:24:23;11.88;;;2.00;;
16624;SDS011;8426;48.496;9.098;2023-02-04T11:29:28;11.15;;;1.63;;
16624;SDS011;8426;48.496;9.098;2023-02-04T11:34:44;8.85;;;1.40;;
16624;SDS011;8426;48.496;9.098;2023-02-04T11:39:52;9.90;;;1.90;;
16624;SDS011;8426;48.496;9.098;2023-02-04T11:56:06;11.32;;;1.92;;
16624;SDS011;8426;48.496;9.098;2023-02-04T12:06:55;8.85;;;1.88;;
16624;SDS011;8426;48.496;9.098;2023-02-04T12:17:14;11.90;;;3.00;;
16624;SDS011;8426;48.496;9.098;2023-02-04T12:22:28;7.95;;;1.75;;
16624;SDS011;8426;48.496;9.098;2023-02-04T12:27:34;6.03;;;1.35;;
16624;SDS011;8426;48.496;9.098;2023-02-04T12:32:37;10.60;;;1.98;;
16624;SDS011;8426;48.496;9.098;2023-02-04T12:37:41;12.15;;;2.38;;
16624;SDS011;8426;48.496;9.098;2023-02-04T12:42:45;12.07;;;2.30;;
16624;SDS011;8426;48.496;9.098;2023-02-04T12:47:49;23.42;;;3.80;;
16624;SDS011;8426;48.496;9.098;2023-02-04T12:52:56;8.15;;;1.80;;
16624;SDS011;8426;48.496;9.098;2023-02-04T12:58:03;5.63;;;2.13;;
16624;SDS011;8426;48.496;9.098;2023-02-04T13:03:06;18.05;;;3.10;;
16624;SDS011;8426;48.496;9.098;2023-02-04T13:08:10;10.02;;;2.03;;
16624;SDS011;8426;48.496;9.098;2023-02-04T13:13:14;6.18;;;1.85;;
16624;SDS011;8426;48.496;9.098;2023-02-04T13:18:18;13.10;;;2.97;;
16624;SDS011;8426;48.496;9.098;2023-02-04T13:23:22;7.68;;;1.75;;
16624;SDS011;8426;48.496;9.098;2023-02-04T13:28:30;11.23;;;1.90;;
16624;SDS011;8426;48.496;9.098;2023-02-04T13:33:35;12.60;;;1.85;;
16624;SDS011;8426;48.496;9.098;2023-02-04T13:38:38;8.32;;;1.60;;
16624;SDS011;8426;48.496;9.098;2023-02-04T13:43:43;13.48;;;2.25;;
16624;SDS011;8426;48.496;9.098;2023-02-04T13:48:49;11.18;;;2.28;;
16624;SDS011;8426;48.496;9.098;2023-02-04T13:53:52;11.52;;;1.75;;
16624;SDS011;8426;48.496;9.098;2023-02-04T13:58:57;13.77;;;1.80;;
16624;SDS011;8426;48.496;9.098;2023-02-04T14:04:00;12.02;;;2.15;;
16624;SDS011;8426;48.496;9.098;2023-02-04T14:09:04;10.23;;;2.00;;
16624;SDS011;8426;48.496;9.098;2023-02-04T14:14:08;13.63;;;3.72;;
16624;SDS011;8426;48.496;9.098;2023-02-04T14:19:12;9.75;;;1.90;;
16624;SDS011;8426;48.496;9.098;2023-02-04T14:24:15;12.95;;;2.00;;
16624;SDS011;8426;48.496;9.098;2023-02-04T14:29:20;10.85;;;2.03;;
16624;SDS011;8426;48.496;9.098;2023-02-04T14:34:23;7.57;;;1.88;;
16624;SDS011;8426;48.496;9.098;2023-02-04T14:39:26;6.07;;;1.60;;
16624;SDS011;8426;48.496;9.098;2023-02-04T14:44:31;14.25;;;3.92;;
16624;SDS011;8426;48.496;9.098;2023-02-04T14:49:34;12.45;;;3.45;;
16624;SDS011;8426;48.496;9.098;2023-02-04T14:54:38;11.07;;;2.08;;
16624;SDS011;8426;48.496;9.098;2023-02-04T14:59:43;11.75;;;1.77;;
16624;SDS011;8426;48.496;9.098;2023-02-04T15:04:47;9.13;;;3.35;;
16624;SDS011;8426;48.496;9.098;2023-02-04T15:09:50;11.40;;;2.90;;
16624;SDS011;8426;48.496;9.098;2023-02-04T15:14:55;13.60;;;2.75;;
16624;SDS011;8426;48.496;9.098;2023-02-04T15:19:59;7.95;;;2.00;;
16624;SDS011;8426;48.496;9.098;2023-02-04T15:25:04;8.05;;;2.15;;
16624;SDS011;8426;48.496;9.098;2023-02-04T15:30:09;8.27;;;1.90;;
16624;SDS011;8426;48.496;9.098;2023-02-04T15:35:14;9.65;;;1.73;;
16624;SDS011;8426;48.496;9.098;2023-02-04T15:40:20;16.70;;;2.10;;
16624;SDS011;8426;48.496;9.098;2023-02-04T15:45:26;9.85;;;1.88;;
16624;SDS011;8426;48.496;9.098;2023-02-04T15:50:32;11.85;;;2.40;;
16624;SDS011;8426;48.496;9.098;2023-02-04T15:55:35;10.15;;;2.10;;
16624;SDS011;8426;48.496;9.098;2023-02-04T16:00:42;14.35;;;2.50;;
16624;SDS011;8426;48.496;9.098;2023-02-04T16:05:45;19.90;;;3.60;;
16624;SDS011;8426;48.496;9.098;2023-02-04T16:10:49;9.25;;;2.25;;
16624;SDS011;8426;48.496;9.098;2023-02-04T16:15:56;10.93;;;1.70;;
16624;SDS011;8426;48.496;9.098;2023-02-04T16:20:59;8.07;;;3.35;;
16624;SDS011;8426;48.496;9.098;2023-02-04T16:26:02;12.40;;;2.60;;
16624;SDS011;8426;48.496;9.098;2023-02-04T16:31:07;11.88;;;2.67;;
16624;SDS011;8426;48.496;9.098;2023-02-04T16:36:11;8.68;;;2.67;;
16624;SDS011;8426;48.496;9.098;2023-02-04T16:41:15;14.75;;;3.13;;
16624;SDS011;8426;48.496;9.098;2023-02-04T16:46:19;9.63;;;2.33;;
16624;SDS011;8426;48.496;9.098;2023-02-04T16:51:25;14.70;;;2.85;;
16624;SDS011;8426;48.496;9.098;2023-02-04T16:56:30;11.70;;;2.95;;
16624;SDS011;8426;48.496;9.098;2023-02-04T17:01:37;8.95;;;2.55;;
16624;SDS011;8426;48.496;9.098;2023-02-04T17:06:40;6.15;;;1.83;;
16624;SDS011;8426;48.496;9.098;2023-02-04T17:11:50;15.60;;;3.10;;
16624;SDS011;8426;48.496;9.098;2023-02-04T17:16:57;11.55;;;3.10;;
16624;SDS011;8426;48.496;9.098;2023-02-04T17:22:00;14.93;;;3.88;;
16624;SDS011;8426;48.496;9.098;2023-02-04T17:27:05;14.85;;;3.78;;
16624;SDS011;8426;48.496;9.098;2023-02-04T17:32:16;14.75;;;4.43;;
16624;SDS011;8426;48.496;9.098;2023-02-04T17:37:20;12.77;;;4.30;;
16624;SDS011;8426;48.496;9.098;2023-02-04T17:42:23;13.43;;;4.20;;
16624;SDS011;8426;48.496;9.098;2023-02-04T17:47:28;15.55;;;4.07;;
16624;SDS011;8426;48.496;9.098;2023-02-04T17:52:32;12.52;;;3.78;;
16624;SDS011;8426;48.496;9.098;2023-02-04T17:57:35;13.77;;;3.97;;
16624;SDS011;8426;48.496;9.098;2023-02-04T18:02:45;7.28;;;2.38;;
16624;SDS011;8426;48.496;9.098;2023-02-04T18:07:58;8.70;;;3.30;;
16624;SDS011;8426;48.496;9.098;2023-02-04T18:13:09;8.95;;;3.45;;
16624;SDS011;8426;48.496;9.098;2023-02-04T18:18:24;9.30;;;2.60;;
16624;SDS011;8426;48.496;9.098;2023-02-04T18:23:29;11.85;;;2.42;;
16624;SDS011;8426;48.496;9.098;2023-02-04T18:28:34;10.80;;;3.10;;
16624;SDS011;8426;48.496;9.098;2023-02-04T18:33:42;10.47;;;3.60;;
16624;SDS011;8426;48.496;9.098;2023-02-04T18:38:45;13.98;;;3.53;;
16624;SDS011;8426;48.496;9.098;2023-02-04T18:49:08;12.50;;;4.57;;
16624;SDS011;8426;48.496;9.098;2023-02-04T18:54:28;16.10;;;4.40;;
16624;SDS011;8426;48.496;9.098;2023-02-04T18:59:39;17.10;;;4.13;;
16624;SDS011;8426;48.496;9.098;2023-02-04T19:04:45;14.67;;;3.77;;
16624;SDS011;8426;48.496;9.098;2023-02-04T19:09:50;12.70;;;3.20;;
16624;SDS011;8426;48.496;9.098;2023-02-04T19:14:56;22.60;;;3.33;;
16624;SDS011;8426;48.496;9.098;2023-02-04T19:20:04;15.87;;;3.40;;
16624;SDS011;8426;48.496;9.098;2023-02-04T19:25:26;12.50;;;3.27;;
16624;SDS011;8426;48.496;9.098;2023-02-04T19:35:52;7.83;;;3.13;;
16624;SDS011;8426;48.496;9.098;2023-02-04T19:40:56;12.87;;;3.57;;
16624;SDS011;8426;48.496;9.098;2023-02-04T19:46:01;9.43;;;2.90;;
16624;SDS011;8426;48.496;9.098;2023-02-04T19:51:25;8.90;;;2.73;;
16624;SDS011;8426;48.496;9.098;2023-02-04T19:56:33;5.90;;;2.37;;
16624;SDS011;8426;48.496;9.098;2023-02-04T20:01:38;6.47;;;2.40;;
16624;SDS011;8426;48.496;9.098;2023-02-04T20:06:43;9.63;;;2.63;;
16624;SDS011;8426;48.496;9.098;2023-02-04T20:11:50;7.87;;;3.07;;
16624;SDS011;8426;48.496;9.098;2023-02-04T20:17:03;12.30;;;2.80;;
16624;SDS011;8426;48.496;9.098;2023-02-04T20:27:51;6.93;;;3.03;;
16624;SDS011;8426;48.496;9.098;2023-02-04T20:38:33;10.87;;;3.00;;
16624;SDS011;8426;48.496;9.098;2023-02-04T20:43:52;8.90;;;3.53;;
16624;SDS011;8426;48.496;9.098;2023-02-04T20:54:36;15.70;;;5.27;;
16624;SDS011;8426;48.496;9.098;2023-02-04T20:59:52;13.50;;;4.40;;
16624;SDS011;8426;48.496;9.098;2023-02-04T21:10:06;12.40;;;4.17;;
16624;SDS011;8426;48.496;9.098;2023-02-04T21:15:17;12.13;;;4.53;;
16624;SDS011;8426;48.496;9.098;2023-02-04T21:20:20;12.97;;;6.10;;
16624;SDS011;8426;48.496;9.098;2023-02-04T21:25:31;8.23;;;4.17;;
16624;SDS011;8426;48.496;9.098;2023-02-04T21:30:35;7.70;;;3.83;;
16624;SDS011;8426;48.496;9.098;2023-02-04T21:35:41;11.53;;;4.80;;
16624;SDS011;8426;48.496;9.098;2023-02-04T21:40:45;15.40;;;5.83;;
16624;SDS011;8426;48.496;9.098;2023-02-04T21:45:50;14.83;;;5.37;;
16624;SDS011;8426;48.496;9.098;2023-02-04T21:50:57;17.17;;;5.80;;
16624;SDS011;8426;48.496;9.098;2023-02-04T21:56:10;10.07;;;4.63;;
16624;SDS011;8426;48.496;9.098;2023-02-04T22:01:15;11.40;;;5.00;;
16624;SDS011;8426;48.496;9.098;2023-02-04T22:06:22;17.77;;;6.20;;
16624;SDS011;8426;48.496;9.098;2023-02-04T22:11:28;13.37;;;6.07;;
16624;SDS011;8426;48.496;9.098;2023-02-04T22:16:31;16.63;;;6.10;;
16624;SDS011;8426;48.496;9.098;2023-02-04T22:21:34;16.33;;;6.67;;
16624;SDS011;8426;48.496;9.098;2023-02-04T22:26:42;20.20;;;6.67;;
16624;SDS011;8426;48.496;9.098;2023-02-04T22:31:46;16.47;;;6.37;;
16624;SDS011;8426;48.496;9.098;2023-02-04T22:36:49;15.53;;;5.77;;
16624;SDS011;8426;48.496;9.098;2023-02-04T22:41:55;12.80;;;5.40;;
16624;SDS011;8426;48.496;9.098;2023-02-04T22:47:01;13.73;;;5.30;;
16624;SDS011;8426;48.496;9.098;2023-02-04T22:52:04;15.70;;;5.70;;
16624;SDS011;8426;48.496;9.098;2023-02-04T22:57:11;17.97;;;5.47;;
16624;SDS011;8426;48.496;9.098;2023-02-04T23:02:15;18.97;;;5.77;;
16624;SDS011;8426;48.496;9.098;2023-02-04T23:07:19;17.57;;;5.97;;
16624;SDS011;8426;48.496;9.098;2023-02-04T23:12:23;19.40;;;6.70;;
16624;SDS011;8426;48.496;9.098;2023-02-04T23:17:27;17.70;;;6.30;;
16624;SDS011;8426;48.496;9.098;2023-02-04T23:22:37;16.37;;;5.40;;
16624;SDS011;8426;48.496;9.098;2023-02-04T23:27:43;13.63;;;5.20;;
16624;SDS011;8426;48.496;9.098;2023-02-04T23:32:47;13.07;;;5.23;;
16624;SDS011;8426;48.496;9.098;2023-02-04T23:37:50;13.83;;;4.63;;
16624;SDS011;8426;48.496;9.098;2023-02-04T23:42:55;18.00;;;5.87;;
16624;SDS011;8426;48.496;9.098;2023-02-04T23:48:01;15.30;;;4.70;;
16624;SDS011;8426;48.496;9.098;2023-02-04T23:53:04;10.73;;;5.50;;
16624;SDS011;8426;48.496;9.098;2023-02-04T23:58:09;15.13;;;5.50;;
